Terminal Aerodrome Forecast
Issued by NWS Salt Lake City, UT

Home | Current Version | Previous Version | Text Only | Print | Product List | Glossary On
Versions: 1 2 3 4 5 6 7 8 9 10 11 12 13 14 15 16 17 18 19 20 21 22 23 24 25 26 27 28 29 30 31 32 33 34 35 36 37 38 39 40 41 42 43 44 45
000
FTUS45 KSLC 281120
TAFSLC
TAF
KSLC 281120Z 2812/2918 15008KT P6SM SCT100 BKN140
     FM281500 17005KT P6SM VCSH SCT090 BKN120
     FM281900 30009KT P6SM VCTS SCT070CB BKN100
     FM290000 33009KT P6SM VCSH SCT070 BKN100
     FM290300 15008KT P6SM SCT070 BKN110=

USA.gov is the U.S. government's official web portal to all federal, state and local government web resources and services.